createdAt,value
2023-05-01T00:01:53.895Z,17.40
2023-05-01T00:06:53.917Z,15.30
2023-05-01T00:11:53.773Z,15.10
2023-05-01T00:16:53.778Z,15.70
2023-05-01T00:21:53.656Z,17.30
2023-05-01T00:26:53.583Z,15.60
2023-05-01T00:31:53.540Z,16.10
2023-05-01T00:36:54.147Z,16.50
2023-05-01T00:41:53.408Z,16.00
2023-05-01T00:46:53.362Z,18.00
2023-05-01T00:51:53.329Z,19.40
2023-05-01T00:56:53.218Z,24.30
2023-05-01T01:01:54.404Z,23.20
2023-05-01T01:06:53.071Z,32.80
2023-05-01T01:11:53.020Z,30.20
2023-05-01T01:16:52.971Z,30.20
2023-05-01T01:21:52.883Z,29.90
2023-05-01T01:26:52.825Z,30.20
2023-05-01T01:32:17.021Z,34.00
2023-05-01T01:36:52.674Z,33.40
2023-05-01T01:41:52.645Z,32.00
2023-05-01T01:46:52.530Z,35.50
2023-05-01T01:51:52.458Z,29.60
2023-05-01T01:56:52.397Z,30.30
2023-05-01T02:01:52.435Z,31.00
2023-05-01T02:06:52.369Z,32.00
2023-05-01T02:11:52.232Z,32.90
2023-05-01T02:16:52.139Z,32.50
2023-05-01T02:21:52.064Z,35.10
2023-05-01T02:26:51.989Z,34.60
2023-05-01T02:31:51.961Z,36.90
2023-05-01T02:36:51.861Z,35.20
2023-05-01T02:41:51.793Z,35.20
2023-05-01T02:46:51.767Z,38.50
2023-05-01T02:51:51.670Z,38.00
2023-05-01T02:56:51.600Z,41.20
2023-05-01T03:01:51.626Z,38.20
2023-05-01T03:06:51.513Z,36.00
2023-05-01T03:11:51.420Z,37.10
2023-05-01T03:16:51.345Z,38.20
2023-05-01T03:21:51.270Z,37.20
2023-05-01T03:26:51.218Z,37.50
2023-05-01T03:31:51.172Z,36.10
2023-05-01T03:36:51.075Z,37.00
2023-05-01T03:41:51.010Z,34.80
2023-05-01T03:46:50.940Z,31.50
2023-05-01T03:51:50.878Z,25.40
2023-05-01T03:56:50.841Z,25.50
2023-05-01T04:01:50.775Z,28.10
2023-05-01T04:06:50.757Z,27.50
2023-05-01T04:11:50.618Z,28.00
2023-05-01T04:16:50.588Z,25.50
2023-05-01T04:21:50.494Z,22.70
2023-05-01T04:26:50.432Z,22.70
2023-05-01T04:31:50.373Z,18.60
2023-05-01T04:36:50.282Z,19.20
2023-05-01T04:41:50.231Z,18.80
2023-05-01T04:46:50.230Z,16.40
2023-05-01T04:51:50.076Z,15.60
2023-05-01T04:56:50.016Z,16.00
2023-05-01T05:01:49.990Z,15.80
2023-05-01T05:06:49.934Z,16.40
2023-05-01T05:11:49.830Z,15.90
2023-05-01T05:16:50.131Z,15.70
2023-05-01T05:21:49.709Z,17.10
2023-05-01T05:26:49.685Z,16.10
2023-05-01T05:31:49.604Z,15.90
2023-05-01T05:36:49.481Z,16.20
2023-05-01T05:41:49.438Z,17.00
2023-05-01T05:46:49.345Z,16.80
2023-05-01T05:51:49.277Z,16.10
2023-05-01T05:56:49.223Z,16.60
2023-05-01T06:01:49.171Z,16.20
2023-05-01T06:06:49.164Z,16.80
2023-05-01T06:11:49.016Z,16.90
2023-05-01T06:16:48.950Z,15.50
2023-05-01T06:21:48.905Z,15.10
2023-05-01T06:26:48.836Z,13.80
2023-05-01T06:31:48.785Z,13.50
2023-05-01T06:36:48.711Z,12.20
2023-05-01T06:41:48.900Z,11.10
2023-05-01T06:46:48.586Z,10.50
2023-05-01T06:51:48.486Z,10.60
2023-05-01T06:56:48.454Z,9.60
2023-05-01T07:01:48.362Z,8.30
2023-05-01T07:06:48.425Z,8.00
2023-05-01T07:11:48.249Z,7.40
2023-05-01T07:16:48.235Z,7.60
2023-05-01T07:21:48.101Z,7.20
2023-05-01T07:26:48.058Z,7.20
2023-05-01T07:31:48.087Z,7.30
2023-05-01T07:36:47.944Z,6.60
2023-05-01T07:41:47.847Z,6.30
2023-05-01T07:46:47.797Z,5.90
2023-05-01T07:51:47.716Z,5.80
2023-05-01T07:56:49.670Z,6.30
2023-05-01T08:01:47.602Z,5.70
2023-05-01T08:06:47.583Z,5.10
2023-05-01T08:11:47.452Z,4.90
2023-05-01T08:16:47.480Z,4.90
2023-05-01T08:21:47.316Z,4.30
2023-05-01T08:26:47.287Z,4.50
2023-05-01T08:31:47.246Z,4.30
2023-05-01T08:36:47.138Z,4.40
2023-05-01T08:41:47.096Z,4.40
2023-05-01T08:46:47.093Z,4.60
2023-05-01T08:51:46.930Z,4.40
2023-05-01T08:56:46.905Z,4.40
2023-05-01T09:01:46.866Z,4.40
2023-05-01T09:06:46.816Z,4.00
2023-05-01T09:11:46.657Z,3.80
2023-05-01T09:16:46.688Z,4.20
2023-05-01T09:21:46.536Z,4.60
2023-05-01T09:26:46.512Z,4.50
2023-05-01T09:31:46.453Z,4.20
2023-05-01T09:36:46.334Z,4.50
2023-05-01T09:41:46.343Z,4.00
2023-05-01T09:46:46.272Z,4.60
2023-05-01T09:51:46.144Z,4.30
2023-05-01T09:56:46.144Z,4.10
2023-05-01T10:01:46.142Z,3.90
2023-05-01T10:06:46.018Z,4.10
2023-05-01T10:11:45.867Z,3.90
2023-05-01T10:16:45.893Z,4.10
2023-05-01T10:21:45.784Z,3.90
2023-05-01T10:26:45.686Z,3.20
2023-05-01T10:31:45.712Z,4.10
2023-05-01T10:36:45.581Z,3.40
2023-05-01T10:41:45.499Z,3.40
2023-05-01T10:46:45.447Z,3.40
2023-05-01T10:51:45.327Z,3.70
2023-05-01T10:56:45.262Z,3.00
2023-05-01T11:01:45.274Z,4.20
2023-05-01T11:06:45.303Z,3.10
2023-05-01T11:11:45.095Z,3.10
2023-05-01T11:16:45.112Z,3.10
2023-05-01T11:21:45.018Z,2.80
2023-05-01T11:26:44.862Z,3.10
2023-05-01T11:31:44.827Z,3.20
2023-05-01T11:36:44.731Z,3.10
2023-05-01T11:41:44.704Z,3.00
2023-05-01T11:46:44.600Z,2.90
2023-05-01T11:51:44.545Z,2.90
2023-05-01T11:56:44.469Z,3.00
2023-05-01T12:01:44.403Z,3.30
2023-05-01T12:06:44.361Z,3.00
2023-05-01T12:11:44.355Z,3.80
2023-05-01T12:16:44.203Z,3.30
2023-05-01T12:21:44.133Z,3.90
2023-05-01T12:26:44.052Z,2.80
2023-05-01T12:31:44.062Z,2.90
2023-05-01T12:36:43.920Z,3.10
2023-05-01T12:41:43.855Z,2.40
2023-05-01T12:46:43.825Z,2.60
2023-05-01T12:51:43.723Z,2.20
2023-05-01T12:56:43.671Z,2.40
2023-05-01T13:01:43.636Z,2.30
2023-05-01T13:06:43.600Z,2.10
2023-05-01T13:11:43.467Z,2.10
2023-05-01T13:16:43.494Z,2.20
2023-05-01T13:21:43.322Z,2.10
2023-05-01T13:26:43.256Z,1.90
2023-05-01T13:31:43.212Z,1.70
2023-05-01T13:36:43.175Z,3.30
2023-05-01T13:41:43.050Z,9.00
2023-05-01T13:46:42.982Z,2.80
2023-05-01T13:51:42.922Z,1.80
2023-05-01T13:56:42.847Z,1.90
2023-05-01T14:01:42.965Z,2.50
2023-05-01T14:06:42.748Z,1.90
2023-05-01T14:11:42.651Z,1.80
2023-05-01T14:16:42.592Z,1.80
2023-05-01T14:21:42.540Z,1.70
2023-05-01T14:26:42.452Z,1.70
2023-05-01T14:31:42.435Z,1.70
2023-05-01T14:36:42.308Z,1.50
2023-05-01T14:41:42.270Z,1.60
2023-05-01T14:46:42.300Z,1.90
2023-05-01T14:51:42.207Z,1.80
2023-05-01T14:56:42.102Z,1.80
2023-05-01T15:01:42.129Z,2.20
2023-05-01T15:06:42.098Z,2.20
2023-05-01T15:11:41.955Z,2.40
2023-05-01T15:16:41.860Z,2.70
2023-05-01T15:21:41.791Z,2.20
2023-05-01T15:26:41.705Z,2.00
2023-05-01T15:31:41.681Z,1.90
2023-05-01T15:36:41.644Z,2.10
2023-05-01T15:41:41.524Z,2.50
2023-05-01T15:46:41.575Z,2.10
2023-05-01T15:51:41.422Z,2.70
2023-05-01T15:56:41.358Z,2.10
2023-05-01T16:01:41.384Z,1.90
2023-05-01T16:06:41.575Z,2.20
2023-05-01T16:11:41.094Z,2.70
2023-05-01T16:16:41.074Z,2.50
2023-05-01T16:21:41.035Z,2.20
2023-05-01T16:26:40.919Z,2.50
2023-05-01T16:31:40.919Z,2.50
2023-05-01T16:36:40.763Z,2.30
2023-05-01T16:41:40.705Z,2.20
2023-05-01T16:46:40.698Z,2.30
2023-05-01T16:51:40.570Z,2.60
2023-05-01T16:56:40.531Z,2.40
2023-05-01T17:01:40.800Z,2.50
2023-05-01T17:06:40.802Z,2.60
2023-05-01T17:11:40.316Z,2.70
2023-05-01T17:16:40.309Z,2.40
2023-05-01T17:21:40.121Z,2.90
2023-05-01T17:26:40.067Z,2.50
2023-05-01T17:31:40.264Z,2.80
2023-05-01T17:36:40.115Z,2.80
2023-05-01T17:41:39.853Z,2.90
2023-05-01T17:46:39.791Z,2.60
2023-05-01T17:51:39.727Z,2.50
2023-05-01T17:56:39.647Z,2.90
2023-05-01T18:01:39.681Z,3.10
2023-05-01T18:06:39.601Z,2.90
2023-05-01T18:11:39.446Z,3.10
2023-05-01T18:16:39.426Z,4.10
2023-05-01T18:21:39.342Z,3.80
2023-05-01T18:26:39.249Z,3.90
2023-05-01T18:31:39.191Z,4.10
2023-05-01T18:36:39.152Z,4.30
2023-05-01T18:41:39.045Z,3.90
2023-05-01T18:46:39.025Z,5.00
2023-05-01T18:51:38.956Z,4.80
2023-05-01T18:56:38.848Z,5.20
2023-05-01T19:01:38.860Z,5.10
2023-05-01T19:06:38.737Z,4.70
2023-05-01T19:11:38.643Z,4.60
2023-05-01T19:16:38.684Z,4.70
2023-05-01T19:21:38.499Z,5.40
2023-05-01T19:26:38.459Z,4.90
2023-05-01T19:31:38.469Z,5.50
2023-05-01T19:36:38.317Z,5.70
2023-05-01T19:41:38.239Z,5.20
2023-05-01T19:46:38.172Z,5.00
2023-05-01T19:51:38.100Z,4.90
2023-05-01T19:56:38.040Z,4.70
2023-05-01T20:01:38.062Z,5.10
2023-05-01T20:06:37.919Z,4.70
2023-05-01T20:11:37.840Z,5.20
2023-05-01T20:16:37.810Z,5.60
2023-05-01T20:21:37.707Z,5.70
2023-05-01T20:26:37.641Z,5.70
2023-05-01T20:31:37.663Z,6.50
2023-05-01T20:36:37.503Z,6.40
2023-05-01T20:41:37.440Z,6.50
2023-05-01T20:46:37.415Z,6.40
2023-05-01T20:51:37.306Z,6.80
2023-05-01T20:56:37.220Z,7.10
2023-05-01T21:01:37.258Z,6.30
2023-05-01T21:06:37.161Z,5.40
2023-05-01T21:11:37.032Z,5.50
2023-05-01T21:16:36.993Z,5.60
2023-05-01T21:21:36.916Z,6.40
2023-05-01T21:26:36.816Z,6.00
2023-05-01T21:31:37.000Z,5.60
2023-05-01T21:36:36.696Z,6.90
2023-05-01T21:41:36.629Z,6.00
2023-05-01T21:46:36.636Z,6.40
2023-05-01T21:51:36.484Z,6.50
2023-05-01T21:56:36.418Z,5.70
2023-05-01T22:01:36.458Z,5.60
2023-05-01T22:06:36.305Z,5.60
2023-05-01T22:11:36.211Z,6.00
2023-05-01T22:16:36.192Z,5.60
2023-05-01T22:21:36.078Z,5.90
2023-05-01T22:26:36.025Z,5.90
2023-05-01T22:31:36.054Z,5.90
2023-05-01T22:36:35.887Z,6.50
2023-05-01T22:41:35.830Z,6.50
2023-05-01T22:46:35.764Z,6.70
2023-05-01T22:51:35.693Z,7.40
2023-05-01T22:56:35.654Z,6.70
2023-05-01T23:01:35.669Z,6.70
2023-05-01T23:06:35.564Z,6.80
2023-05-01T23:11:35.439Z,6.60
2023-05-01T23:16:35.412Z,7.20
2023-05-01T23:21:35.333Z,7.60
2023-05-01T23:26:35.229Z,7.50
2023-05-01T23:31:35.281Z,7.60
2023-05-01T23:36:35.109Z,6.50
2023-05-01T23:41:35.041Z,7.00
2023-05-01T23:46:35.026Z,7.10
2023-05-01T23:51:34.912Z,7.40
2023-05-01T23:56:34.823Z,7.70
